Hlavní strana
METAR-TAF:

METAR-TAF

Letiště :

Northway, Aljaška, Spojené státy americké

zeměpisná šířka: 62-57-40N, zeměpisná délka: 141-55-44W, výška: 523 m

Aktuální stav počasí

Zpráva byla vytvořena před 56 minutami, v 09:53 UTC
Severovýchodní vítr 4 kt
Teplota -18°C
Vlhkost vzduchu 77%
Tlak 1010 hPa
Viditelnost: 16.1 km
Skoro jasno ve výšce 12000 ft

METAR: PAOR 180953Z 04004KT 10SM FEW120 M18/M21 A2982 RMK AO2 SLP159 T11781211

Čas: 01:49 (10:49 UTC)

Předpověď počasí

Zpráva byla vytvořena před 5 hodinami a 10 minutami, v 05:39 UTC
Předpověď platná od 18 v 06 UTC do 19 v 06 UTC
Západoseverozápadní vítr 3 kt
Viditelnost: 10 km
Polojasno ve výšce 10000 ft

TAF: PAOR 180539Z 1806/1906 30003KT P6SM SCT100

Stav a předpovědi počasí z více než 4 000 letišť (zprávy METAR a TAF).

Červené a žluté tečky na mapě představují dostupné meteorologické stanice.

Když kurzor umístíte na tečku, zobrazí se název stanice.

Pak kliknutím zobrazíte stav a předpověď počasí.

Chcete-li změnit mapu, kliknutím na zelené tlačítko se znaménkem +mapu přiblížíte, kliknutím na zelené tlačítko se znaménkem – mapu oddálíte a kliknutím na zelené šipky přejdete na sousední mapy.


METAR-TAF: